VIV353 MMMY-MMMX
Flight info
| Callsign | VIV353 |
|---|---|
| Flight time | 1h 7m |
| Altitude | 39000 |
| Route | KERGA1A KERGA UT132 DARAN DARAN3A |
| Aircraft | A20N/M-SDE2E3FGHIRWXY/LB1 |
Departure
| Time | 2026-05-09 02:18 |
|---|---|
| Airport | Monterrey International Airport (MMMY) |
Arrival
| Time | 2026-05-09 03:25 |
|---|---|
| Airport | Mexico City Benito Juárez International Airport (MMMX) |
| Time | Latitude | Longitude | Altitude | Speed | Heading |
|---|---|---|---|---|---|
| 2026-05-09 02:07 | 25.78039 | -100.11823 | 1271 ft | 0 kts | 211° |
| 2026-05-09 02:08 | 25.78044 | -100.11819 | 1281 ft | 2 kts | 206° |
| 2026-05-09 02:08 | 25.78058 | -100.11810 | 1282 ft | 2 kts | 209° |
| 2026-05-09 02:08 | 25.78072 | -100.11801 | 1281 ft | 2 kts | 224° |
| 2026-05-09 02:08 | 25.78082 | -100.11786 | 1281 ft | 2 kts | 256° |
| 2026-05-09 02:09 | 25.78081 | -100.11768 | 1281 ft | 2 kts | 303° |
| 2026-05-09 02:09 | 25.78074 | -100.11755 | 1284 ft | 1 kts | 302° |
| 2026-05-09 02:12 | 25.78083 | -100.11770 | 1281 ft | 4 kts | 303° |
| 2026-05-09 02:12 | 25.78105 | -100.11811 | 1282 ft | 8 kts | 300° |
| 2026-05-09 02:13 | 25.78149 | -100.11869 | 1281 ft | 11 kts | 335° |
| 2026-05-09 02:13 | 25.78227 | -100.11836 | 1281 ft | 14 kts | 31° |
| 2026-05-09 02:13 | 25.78311 | -100.11779 | 1281 ft | 10 kts | 31° |
| 2026-05-09 02:13 | 25.78316 | -100.11776 | 1282 ft | 0 kts | 31° |
| 2026-05-09 02:15 | 25.78332 | -100.11765 | 1281 ft | 5 kts | 31° |
| 2026-05-09 02:16 | 25.78379 | -100.11733 | 1281 ft | 10 kts | 31° |
| 2026-05-09 02:16 | 25.78403 | -100.11713 | 1281 ft | 2 kts | 55° |
| 2026-05-09 02:16 | 25.78400 | -100.11688 | 1281 ft | 3 kts | 115° |
| 2026-05-09 02:16 | 25.78397 | -100.11681 | 1281 ft | 0 kts | 119° |
| 2026-05-09 02:17 | 25.78236 | -100.11391 | 1281 ft | 86 kts | 121° |
| 2026-05-09 02:18 | 25.77797 | -100.10595 | 1279 ft | 152 kts | 121° |
| 2026-05-09 02:18 | 25.77176 | -100.09452 | 1578 ft | 183 kts | 121° |
| 2026-05-09 02:18 | 25.76514 | -100.08221 | 2334 ft | 192 kts | 121° |
| 2026-05-09 02:18 | 25.75801 | -100.06915 | 3075 ft | 204 kts | 121° |
| 2026-05-09 02:19 | 25.75016 | -100.05502 | 3675 ft | 227 kts | 123° |
| 2026-05-09 02:19 | 25.74134 | -100.03952 | 4263 ft | 248 kts | 123° |
| 2026-05-09 02:19 | 25.73193 | -100.02266 | 5000 ft | 261 kts | 123° |
| 2026-05-09 02:19 | 25.72245 | -100.00520 | 5923 ft | 266 kts | 122° |
| 2026-05-09 02:20 | 25.71276 | -99.98763 | 6733 ft | 273 kts | 127° |
| 2026-05-09 02:20 | 25.69883 | -99.97330 | 7544 ft | 277 kts | 150° |
| 2026-05-09 02:20 | 25.68055 | -99.96641 | 8349 ft | 282 kts | 175° |
| 2026-05-09 02:20 | 25.66077 | -99.96684 | 9175 ft | 287 kts | 184° |
| 2026-05-09 02:21 | 25.64056 | -99.96818 | 9980 ft | 293 kts | 185° |
| 2026-05-09 02:21 | 25.61962 | -99.96958 | 10430 ft | 313 kts | 185° |
| 2026-05-09 02:21 | 25.59700 | -99.97106 | 10702 ft | 336 kts | 185° |
| 2026-05-09 02:21 | 25.57352 | -99.97250 | 11279 ft | 345 kts | 185° |
| 2026-05-09 02:22 | 25.54948 | -99.97390 | 12115 ft | 347 kts | 186° |
| 2026-05-09 02:22 | 25.52524 | -99.97529 | 12941 ft | 350 kts | 186° |
| 2026-05-09 02:22 | 25.50075 | -99.97670 | 13742 ft | 353 kts | 187° |
| 2026-05-09 02:22 | 25.47609 | -99.97814 | 14473 ft | 356 kts | 187° |
| 2026-05-09 02:23 | 25.45128 | -99.97961 | 15233 ft | 358 kts | 187° |
| 2026-05-09 02:23 | 25.42634 | -99.98109 | 15972 ft | 360 kts | 187° |
| 2026-05-09 02:23 | 25.40118 | -99.98259 | 16702 ft | 363 kts | 187° |
| 2026-05-09 02:23 | 25.37622 | -99.98408 | 17401 ft | 365 kts | 188° |
| 2026-05-09 02:24 | 25.35077 | -99.98559 | 18123 ft | 368 kts | 188° |
| 2026-05-09 02:24 | 25.32505 | -99.98690 | 18703 ft | 371 kts | 187° |
| 2026-05-09 02:24 | 25.29911 | -99.98808 | 19303 ft | 374 kts | 187° |
| 2026-05-09 02:24 | 25.28183 | -99.98885 | 19684 ft | 376 kts | 187° |
| 2026-05-09 02:25 | 25.24664 | -99.99045 | 20446 ft | 381 kts | 187° |
| 2026-05-09 02:25 | 25.21994 | -99.99168 | 21023 ft | 384 kts | 187° |
| 2026-05-09 02:25 | 25.20218 | -99.99250 | 21411 ft | 386 kts | 187° |
| 2026-05-09 02:25 | 25.16640 | -99.99418 | 22162 ft | 390 kts | 187° |
| 2026-05-09 02:26 | 25.13913 | -99.99547 | 22694 ft | 394 kts | 187° |
| 2026-05-09 02:26 | 25.11155 | -99.99677 | 23227 ft | 398 kts | 187° |
| 2026-05-09 02:26 | 25.09310 | -99.99764 | 23583 ft | 400 kts | 187° |
| 2026-05-09 02:26 | 25.06521 | -99.99896 | 24083 ft | 402 kts | 187° |
| 2026-05-09 02:27 | 25.03719 | -100.00027 | 24597 ft | 401 kts | 187° |
| 2026-05-09 02:27 | 25.00917 | -100.00161 | 25024 ft | 404 kts | 186° |
| 2026-05-09 02:27 | 24.98083 | -100.00293 | 25365 ft | 410 kts | 187° |
| 2026-05-09 02:27 | 24.95218 | -100.00425 | 25740 ft | 413 kts | 186° |
| 2026-05-09 02:28 | 24.92333 | -100.00355 | 25863 ft | 417 kts | 182° |
| 2026-05-09 02:28 | 24.89433 | -100.00181 | 25884 ft | 418 kts | 182° |
| 2026-05-09 02:28 | 24.86556 | -100.00011 | 25878 ft | 417 kts | 182° |
| 2026-05-09 02:28 | 24.83652 | -99.99842 | 25898 ft | 417 kts | 182° |
| 2026-05-09 02:29 | 24.80747 | -99.99674 | 25964 ft | 420 kts | 182° |
| 2026-05-09 02:29 | 24.77815 | -99.99508 | 26352 ft | 422 kts | 182° |
| 2026-05-09 02:29 | 24.74878 | -99.99339 | 26890 ft | 422 kts | 182° |
| 2026-05-09 02:29 | 24.71928 | -99.99172 | 27184 ft | 428 kts | 182° |
| 2026-05-09 02:30 | 24.68949 | -99.99002 | 27678 ft | 428 kts | 182° |
| 2026-05-09 02:30 | 24.65961 | -99.98832 | 28058 ft | 431 kts | 182° |
| 2026-05-09 02:30 | 24.62995 | -99.98664 | 28426 ft | 434 kts | 182° |
| 2026-05-09 02:30 | 24.59970 | -99.98492 | 28804 ft | 436 kts | 182° |
| 2026-05-09 02:31 | 24.56931 | -99.98319 | 29168 ft | 439 kts | 182° |
| 2026-05-09 02:31 | 24.53869 | -99.98145 | 29497 ft | 442 kts | 182° |
| 2026-05-09 02:31 | 24.50786 | -99.97970 | 29879 ft | 445 kts | 182° |
| 2026-05-09 02:31 | 24.47682 | -99.97793 | 30201 ft | 447 kts | 182° |
| 2026-05-09 02:32 | 24.44567 | -99.97616 | 30555 ft | 449 kts | 182° |
| 2026-05-09 02:32 | 24.41449 | -99.97438 | 30912 ft | 450 kts | 182° |
| 2026-05-09 02:32 | 24.38309 | -99.97259 | 31311 ft | 450 kts | 182° |
| 2026-05-09 02:32 | 24.35177 | -99.97080 | 31784 ft | 449 kts | 182° |
| 2026-05-09 02:33 | 24.32095 | -99.96904 | 32266 ft | 446 kts | 182° |
| 2026-05-09 02:33 | 24.28977 | -99.96726 | 32774 ft | 443 kts | 183° |
| 2026-05-09 02:33 | 24.25907 | -99.96551 | 33210 ft | 442 kts | 183° |
| 2026-05-09 02:33 | 24.22839 | -99.96378 | 33646 ft | 440 kts | 183° |
| 2026-05-09 02:34 | 24.19825 | -99.96208 | 34061 ft | 438 kts | 183° |
| 2026-05-09 02:34 | 24.16782 | -99.96036 | 34435 ft | 437 kts | 183° |
| 2026-05-09 02:34 | 24.13759 | -99.95865 | 34765 ft | 435 kts | 184° |
| 2026-05-09 02:34 | 24.10738 | -99.95695 | 35096 ft | 434 kts | 183° |
| 2026-05-09 02:35 | 24.07710 | -99.95524 | 35440 ft | 432 kts | 184° |
| 2026-05-09 02:35 | 24.04719 | -99.95354 | 35797 ft | 430 kts | 184° |
| 2026-05-09 02:35 | 24.01735 | -99.95187 | 36101 ft | 429 kts | 184° |
| 2026-05-09 02:35 | 23.98758 | -99.95019 | 36480 ft | 426 kts | 184° |
| 2026-05-09 02:36 | 23.95800 | -99.94850 | 36846 ft | 424 kts | 184° |
| 2026-05-09 02:36 | 23.92892 | -99.94687 | 37065 ft | 425 kts | 184° |
| 2026-05-09 02:36 | 23.89931 | -99.94523 | 37262 ft | 426 kts | 184° |
| 2026-05-09 02:36 | 23.86972 | -99.94356 | 37621 ft | 424 kts | 184° |
| 2026-05-09 02:37 | 23.84028 | -99.94189 | 37950 ft | 422 kts | 184° |
| 2026-05-09 02:37 | 23.81090 | -99.94024 | 38246 ft | 421 kts | 184° |
| 2026-05-09 02:37 | 23.78165 | -99.93860 | 38532 ft | 420 kts | 184° |
| 2026-05-09 02:37 | 23.75292 | -99.93698 | 38762 ft | 419 kts | 184° |
| 2026-05-09 02:38 | 23.72367 | -99.93534 | 38873 ft | 418 kts | 184° |
| 2026-05-09 02:38 | 23.66556 | -99.93208 | 38883 ft | 416 kts | 184° |
| 2026-05-09 02:39 | 23.60762 | -99.92884 | 38889 ft | 417 kts | 184° |
| 2026-05-09 02:39 | 23.55008 | -99.92563 | 38885 ft | 417 kts | 184° |
| 2026-05-09 02:40 | 23.49202 | -99.92238 | 38887 ft | 417 kts | 184° |
| 2026-05-09 02:40 | 23.43400 | -99.91914 | 38887 ft | 418 kts | 184° |
| 2026-05-09 02:41 | 23.37565 | -99.91589 | 38898 ft | 419 kts | 184° |
| 2026-05-09 02:41 | 23.31770 | -99.91269 | 38868 ft | 417 kts | 184° |
| 2026-05-09 02:42 | 23.25990 | -99.90943 | 38877 ft | 416 kts | 184° |
| 2026-05-09 02:42 | 23.20184 | -99.90624 | 38875 ft | 418 kts | 184° |
| 2026-05-09 02:43 | 23.14371 | -99.90299 | 38867 ft | 418 kts | 184° |
| 2026-05-09 02:43 | 23.08549 | -99.89976 | 38871 ft | 420 kts | 184° |
| 2026-05-09 02:44 | 23.02711 | -99.89650 | 38858 ft | 417 kts | 184° |
| 2026-05-09 02:44 | 22.96944 | -99.89329 | 38857 ft | 418 kts | 184° |
| 2026-05-09 02:45 | 22.91121 | -99.89007 | 38855 ft | 419 kts | 184° |
| 2026-05-09 02:45 | 22.85304 | -99.88684 | 38846 ft | 418 kts | 184° |
| 2026-05-09 02:46 | 22.79487 | -99.88362 | 38842 ft | 420 kts | 184° |
| 2026-05-09 02:46 | 22.73628 | -99.88039 | 38841 ft | 420 kts | 184° |
| 2026-05-09 02:47 | 22.67835 | -99.87716 | 38842 ft | 418 kts | 184° |
| 2026-05-09 02:47 | 22.61993 | -99.87395 | 38836 ft | 420 kts | 184° |
| 2026-05-09 02:48 | 22.56164 | -99.87073 | 38837 ft | 420 kts | 184° |
| 2026-05-09 02:48 | 22.50790 | -99.86776 | 38839 ft | 421 kts | 184° |
| 2026-05-09 02:49 | 22.44973 | -99.86456 | 38839 ft | 420 kts | 183° |
| 2026-05-09 02:49 | 22.39112 | -99.86132 | 38842 ft | 422 kts | 183° |
| 2026-05-09 02:50 | 22.35448 | -99.85932 | 38837 ft | 423 kts | 183° |
| 2026-05-09 02:50 | 22.29621 | -99.85610 | 38835 ft | 420 kts | 183° |
| 2026-05-09 02:51 | 22.23764 | -99.85288 | 38843 ft | 421 kts | 183° |
| 2026-05-09 02:51 | 22.17903 | -99.84967 | 38839 ft | 422 kts | 183° |
| 2026-05-09 02:52 | 22.12026 | -99.84645 | 38844 ft | 423 kts | 183° |
| 2026-05-09 02:52 | 22.06159 | -99.84322 | 38836 ft | 421 kts | 183° |
| 2026-05-09 02:53 | 22.00313 | -99.84001 | 38829 ft | 420 kts | 183° |
| 2026-05-09 02:53 | 21.94455 | -99.83682 | 38848 ft | 424 kts | 183° |
| 2026-05-09 02:54 | 21.88550 | -99.83360 | 38849 ft | 424 kts | 183° |
| 2026-05-09 02:54 | 21.82651 | -99.83036 | 38849 ft | 425 kts | 183° |
| 2026-05-09 02:55 | 21.76783 | -99.82716 | 38853 ft | 425 kts | 183° |
| 2026-05-09 02:55 | 21.70875 | -99.82393 | 38854 ft | 425 kts | 183° |
| 2026-05-09 02:56 | 21.64957 | -99.82071 | 38859 ft | 425 kts | 183° |
| 2026-05-09 02:56 | 21.59044 | -99.81749 | 38860 ft | 425 kts | 183° |
| 2026-05-09 02:57 | 21.53154 | -99.81428 | 38864 ft | 426 kts | 183° |
| 2026-05-09 02:57 | 21.47241 | -99.81106 | 38865 ft | 425 kts | 183° |
| 2026-05-09 02:58 | 21.41316 | -99.80784 | 38872 ft | 426 kts | 183° |
| 2026-05-09 02:58 | 21.35386 | -99.80463 | 38883 ft | 426 kts | 182° |
| 2026-05-09 02:59 | 21.29481 | -99.80142 | 38895 ft | 427 kts | 182° |
| 2026-05-09 02:59 | 21.23540 | -99.79820 | 38902 ft | 428 kts | 182° |
| 2026-05-09 03:00 | 21.17598 | -99.79497 | 38907 ft | 428 kts | 182° |
| 2026-05-09 03:00 | 21.11652 | -99.79176 | 38916 ft | 428 kts | 182° |
| 2026-05-09 03:01 | 21.05996 | -99.78870 | 38931 ft | 428 kts | 182° |
| 2026-05-09 03:01 | 21.00039 | -99.78588 | 38928 ft | 427 kts | 184° |
| 2026-05-09 03:02 | 20.94088 | -99.78406 | 38941 ft | 428 kts | 184° |
| 2026-05-09 03:02 | 20.89128 | -99.78249 | 38904 ft | 428 kts | 184° |
| 2026-05-09 03:02 | 20.86144 | -99.78150 | 38520 ft | 429 kts | 183° |
| 2026-05-09 03:03 | 20.82124 | -99.78016 | 37377 ft | 436 kts | 183° |
| 2026-05-09 03:03 | 20.79096 | -99.77917 | 36311 ft | 445 kts | 182° |
| 2026-05-09 03:03 | 20.75972 | -99.77812 | 35271 ft | 452 kts | 182° |
| 2026-05-09 03:03 | 20.72812 | -99.77704 | 34465 ft | 454 kts | 182° |
| 2026-05-09 03:04 | 20.69645 | -99.77595 | 33623 ft | 456 kts | 182° |
| 2026-05-09 03:04 | 20.66476 | -99.77486 | 32800 ft | 456 kts | 181° |
| 2026-05-09 03:04 | 20.63302 | -99.77378 | 31911 ft | 458 kts | 181° |
| 2026-05-09 03:04 | 20.60117 | -99.77270 | 31025 ft | 459 kts | 181° |
| 2026-05-09 03:05 | 20.56918 | -99.77162 | 30204 ft | 460 kts | 180° |
| 2026-05-09 03:05 | 20.53756 | -99.77055 | 29481 ft | 457 kts | 180° |
| 2026-05-09 03:05 | 20.50569 | -99.76944 | 28966 ft | 447 kts | 180° |
| 2026-05-09 03:05 | 20.47519 | -99.76839 | 28368 ft | 442 kts | 180° |
| 2026-05-09 03:06 | 20.44455 | -99.76733 | 27756 ft | 436 kts | 180° |
| 2026-05-09 03:06 | 20.41430 | -99.76630 | 27149 ft | 432 kts | 180° |
| 2026-05-09 03:06 | 20.38440 | -99.76528 | 26530 ft | 428 kts | 180° |
| 2026-05-09 03:06 | 20.35471 | -99.76426 | 25932 ft | 424 kts | 180° |
| 2026-05-09 03:07 | 20.32569 | -99.76328 | 25372 ft | 420 kts | 180° |
| 2026-05-09 03:07 | 20.29618 | -99.76227 | 24781 ft | 417 kts | 180° |
| 2026-05-09 03:07 | 20.26757 | -99.76130 | 24195 ft | 415 kts | 180° |
| 2026-05-09 03:07 | 20.23879 | -99.76032 | 23593 ft | 412 kts | 179° |
| 2026-05-09 03:08 | 20.21020 | -99.75865 | 22931 ft | 410 kts | 175° |
| 2026-05-09 03:08 | 20.18232 | -99.75385 | 22544 ft | 402 kts | 171° |
| 2026-05-09 03:08 | 20.15489 | -99.74830 | 22108 ft | 401 kts | 171° |
| 2026-05-09 03:08 | 20.12770 | -99.74288 | 21666 ft | 390 kts | 171° |
| 2026-05-09 03:09 | 20.10161 | -99.73769 | 21281 ft | 374 kts | 171° |
| 2026-05-09 03:09 | 20.07645 | -99.73268 | 20921 ft | 359 kts | 171° |
| 2026-05-09 03:09 | 20.05239 | -99.72789 | 20561 ft | 345 kts | 171° |
| 2026-05-09 03:09 | 20.02918 | -99.72327 | 20214 ft | 334 kts | 171° |
| 2026-05-09 03:10 | 20.00657 | -99.71877 | 19853 ft | 324 kts | 171° |
| 2026-05-09 03:10 | 19.98482 | -99.71445 | 19509 ft | 313 kts | 171° |
| 2026-05-09 03:10 | 19.96390 | -99.71029 | 19178 ft | 305 kts | 171° |
| 2026-05-09 03:10 | 19.94274 | -99.70609 | 18846 ft | 308 kts | 171° |
| 2026-05-09 03:11 | 19.92150 | -99.70188 | 18556 ft | 311 kts | 171° |
| 2026-05-09 03:11 | 19.90049 | -99.69771 | 18223 ft | 311 kts | 171° |
| 2026-05-09 03:11 | 19.87923 | -99.69348 | 17806 ft | 309 kts | 171° |
| 2026-05-09 03:11 | 19.85814 | -99.68919 | 17396 ft | 308 kts | 167° |
| 2026-05-09 03:12 | 19.83850 | -99.68006 | 16985 ft | 309 kts | 146° |
| 2026-05-09 03:12 | 19.82800 | -99.67004 | 16839 ft | 305 kts | 131° |
| 2026-05-09 03:12 | 19.81576 | -99.65182 | 16757 ft | 303 kts | 126° |
| 2026-05-09 03:12 | 19.80366 | -99.63326 | 16750 ft | 306 kts | 126° |
| 2026-05-09 03:13 | 19.78173 | -99.59309 | 16752 ft | 323 kts | 123° |
| 2026-05-09 03:13 | 19.76978 | -99.57349 | 16751 ft | 307 kts | 125° |
| 2026-05-09 03:13 | 19.75845 | -99.55555 | 16750 ft | 286 kts | 125° |
| 2026-05-09 03:14 | 19.74766 | -99.53832 | 16753 ft | 276 kts | 124° |
| 2026-05-09 03:14 | 19.73705 | -99.52113 | 16755 ft | 284 kts | 124° |
| 2026-05-09 03:14 | 19.72623 | -99.50334 | 16750 ft | 283 kts | 124° |
| 2026-05-09 03:14 | 19.71575 | -99.48595 | 16751 ft | 278 kts | 124° |
| 2026-05-09 03:15 | 19.70538 | -99.46868 | 16724 ft | 277 kts | 124° |
| 2026-05-09 03:15 | 19.69502 | -99.45142 | 16489 ft | 277 kts | 124° |
| 2026-05-09 03:15 | 19.68475 | -99.43431 | 16146 ft | 277 kts | 124° |
| 2026-05-09 03:15 | 19.67440 | -99.41708 | 15809 ft | 276 kts | 124° |
| 2026-05-09 03:16 | 19.66406 | -99.39988 | 15455 ft | 276 kts | 124° |
| 2026-05-09 03:16 | 19.65377 | -99.38278 | 15125 ft | 274 kts | 124° |
| 2026-05-09 03:16 | 19.64353 | -99.36575 | 14805 ft | 273 kts | 124° |
| 2026-05-09 03:16 | 19.63389 | -99.34972 | 14516 ft | 272 kts | 124° |
| 2026-05-09 03:17 | 19.62384 | -99.33304 | 14212 ft | 271 kts | 124° |
| 2026-05-09 03:17 | 19.61371 | -99.31622 | 13947 ft | 268 kts | 124° |
| 2026-05-09 03:17 | 19.60384 | -99.30009 | 13842 ft | 258 kts | 128° |
| 2026-05-09 03:17 | 19.59223 | -99.28631 | 13746 ft | 243 kts | 141° |
| 2026-05-09 03:18 | 19.57915 | -99.27573 | 13652 ft | 230 kts | 147° |
| 2026-05-09 03:18 | 19.56620 | -99.26585 | 13566 ft | 230 kts | 146° |
| 2026-05-09 03:18 | 19.55343 | -99.25594 | 13479 ft | 229 kts | 146° |
| 2026-05-09 03:18 | 19.54050 | -99.24583 | 13242 ft | 227 kts | 145° |
| 2026-05-09 03:19 | 19.52717 | -99.23740 | 12886 ft | 225 kts | 163° |
| 2026-05-09 03:19 | 19.51166 | -99.23480 | 12511 ft | 224 kts | 182° |
| 2026-05-09 03:19 | 19.49635 | -99.23480 | 12198 ft | 223 kts | 181° |
| 2026-05-09 03:19 | 19.48082 | -99.23462 | 11905 ft | 221 kts | 180° |
| 2026-05-09 03:20 | 19.46592 | -99.23435 | 11826 ft | 205 kts | 180° |
| 2026-05-09 03:20 | 19.45213 | -99.23408 | 11727 ft | 190 kts | 180° |
| 2026-05-09 03:20 | 19.43936 | -99.23383 | 11639 ft | 177 kts | 180° |
| 2026-05-09 03:20 | 19.42741 | -99.23361 | 11485 ft | 168 kts | 180° |
| 2026-05-09 03:21 | 19.41569 | -99.23340 | 11217 ft | 168 kts | 180° |
| 2026-05-09 03:21 | 19.40400 | -99.23299 | 10942 ft | 169 kts | 173° |
| 2026-05-09 03:21 | 19.39278 | -99.22944 | 10675 ft | 169 kts | 153° |
| 2026-05-09 03:21 | 19.38328 | -99.22220 | 10424 ft | 168 kts | 134° |
| 2026-05-09 03:22 | 19.37652 | -99.21242 | 10182 ft | 167 kts | 116° |
| 2026-05-09 03:22 | 19.37287 | -99.20085 | 9919 ft | 166 kts | 99° |
| 2026-05-09 03:22 | 19.37306 | -99.18868 | 9648 ft | 165 kts | 77° |
| 2026-05-09 03:22 | 19.37672 | -99.17739 | 9466 ft | 164 kts | 65° |
| 2026-05-09 03:23 | 19.38198 | -99.16661 | 9303 ft | 164 kts | 60° |
| 2026-05-09 03:23 | 19.38766 | -99.15627 | 9148 ft | 162 kts | 57° |
| 2026-05-09 03:23 | 19.39333 | -99.14610 | 8980 ft | 161 kts | 57° |
| 2026-05-09 03:23 | 19.39899 | -99.13597 | 8772 ft | 158 kts | 57° |
| 2026-05-09 03:24 | 19.40454 | -99.12604 | 8536 ft | 157 kts | 57° |
| 2026-05-09 03:24 | 19.41014 | -99.11606 | 8214 ft | 158 kts | 58° |
| 2026-05-09 03:24 | 19.41573 | -99.10617 | 7904 ft | 155 kts | 59° |
| 2026-05-09 03:24 | 19.42123 | -99.09635 | 7673 ft | 158 kts | 60° |
| 2026-05-09 03:25 | 19.42666 | -99.08648 | 7449 ft | 150 kts | 60° |
| 2026-05-09 03:25 | 19.43187 | -99.07711 | 7311 ft | 144 kts | 60° |
| 2026-05-09 03:25 | 19.43637 | -99.06909 | 7302 ft | 103 kts | 59° |
| 2026-05-09 03:25 | 19.43918 | -99.06419 | 7302 ft | 48 kts | 58° |
| 2026-05-09 03:26 | 19.44045 | -99.06260 | 7302 ft | 22 kts | 38° |
| 2026-05-09 03:26 | 19.44161 | -99.06191 | 7302 ft | 13 kts | 21° |
| 2026-05-09 03:26 | 19.44180 | -99.06184 | 7302 ft | 0 kts | 18° |
| 2026-05-09 03:27 | 19.44193 | -99.06179 | 7302 ft | 3 kts | 18° |
| 2026-05-09 03:28 | 19.44234 | -99.06169 | 7302 ft | 11 kts | 10° |
| 2026-05-09 03:28 | 19.44324 | -99.06160 | 7302 ft | 14 kts | 352° |
| 2026-05-09 03:28 | 19.44401 | -99.06233 | 7302 ft | 17 kts | 292° |
| 2026-05-09 03:28 | 19.44439 | -99.06329 | 7302 ft | 13 kts | 292° |
| 2026-05-09 03:29 | 19.44449 | -99.06423 | 7302 ft | 13 kts | 243° |
| 2026-05-09 03:29 | 19.44400 | -99.06508 | 7302 ft | 14 kts | 238° |
| 2026-05-09 03:29 | 19.44349 | -99.06598 | 7302 ft | 14 kts | 239° |
| 2026-05-09 03:29 | 19.44298 | -99.06690 | 7302 ft | 15 kts | 239° |
| 2026-05-09 03:30 | 19.44246 | -99.06787 | 7302 ft | 15 kts | 239° |
| 2026-05-09 03:30 | 19.44189 | -99.06885 | 7302 ft | 16 kts | 238° |
| 2026-05-09 03:30 | 19.44133 | -99.06988 | 7302 ft | 16 kts | 240° |
| 2026-05-09 03:30 | 19.44073 | -99.07093 | 7302 ft | 17 kts | 239° |
| 2026-05-09 03:31 | 19.44011 | -99.07200 | 7303 ft | 17 kts | 239° |
| 2026-05-09 03:31 | 19.43958 | -99.07297 | 7302 ft | 13 kts | 240° |
| 2026-05-09 03:31 | 19.43917 | -99.07369 | 7302 ft | 10 kts | 238° |
| 2026-05-09 03:31 | 19.43888 | -99.07420 | 7302 ft | 6 kts | 238° |
| 2026-05-09 03:32 | 19.43872 | -99.07450 | 7302 ft | 3 kts | 240° |
| 2026-05-09 03:32 | 19.43857 | -99.07477 | 7302 ft | 7 kts | 240° |
| 2026-05-09 03:32 | 19.43827 | -99.07529 | 7302 ft | 8 kts | 238° |
| 2026-05-09 03:32 | 19.43800 | -99.07578 | 7302 ft | 8 kts | 239° |
| 2026-05-09 03:33 | 19.43783 | -99.07623 | 7302 ft | 5 kts | 266° |
| 2026-05-09 03:33 | 19.43786 | -99.07645 | 7302 ft | 1 kts | 282° |
| 2026-05-09 03:33 | 19.43786 | -99.07647 | 7302 ft | 1 kts | 285° |
| 2026-05-09 03:33 | 19.43791 | -99.07664 | 7302 ft | 3 kts | 284° |
| 2026-05-09 03:34 | 19.43791 | -99.07684 | 7302 ft | 3 kts | 270° |
| 2026-05-09 03:34 | 19.43792 | -99.07696 | 7302 ft | 1 kts | 271° |
| 2026-05-09 03:34 | 19.43787 | -99.07711 | 7302 ft | 2 kts | 245° |
| 2026-05-09 03:34 | 19.43785 | -99.07714 | 7302 ft | 0 kts | 245° |
| 2026-05-09 03:35 | 19.43783 | -99.07718 | 7302 ft | 1 kts | 244° |
| 2026-05-09 03:35 | 19.43782 | -99.07722 | 7302 ft | 1 kts | 244° |
| 2026-05-09 03:35 | 19.43781 | -99.07724 | 7302 ft | 0 kts | 244° |